Accueil
METAR-TAF:

METAR-TAF

Aéroports :

Agen, France

Aéroport Agen-La Garenne

latitude: 44-11N, longitude: 000-36E, altitude: 61 m

Observation

Le bulletin a été fait il y a 13 minutes, à 18:00 UTC
Vent calme
Température 4°C
Humidité 56%
Pression 1009 hPa
Visibilité 10 km ou plus
pas de nuages en-dessous de 1500 mètres et pas de cumulonimbus.

METAR: LFBA 231800Z AUTO 00000KT CAVOK 04/M04 Q1009 NOSIG

Heure: 19:13 (18:13 UTC)

Prévision

Le bulletin a été fait il y a 1 heure et 13 minutes, à 17:00 UTC
Prévision valable du 23 à 18 UTC au 24 à 03 UTC
Vent 2 kt de direction variable
Visibilité 10 km ou plus
Nuages fragmentés à une hauteur de 4000 ft
Probabilité 30% :
Temporairement
du 23 à 22 UTC au 24 à 03 UTC
Visibilité: 1500 m
bancs de brouillard

TAF: LFBA 231700Z 2318/2403 VRB02KT 9999 BKN040 PROB30 TEMPO 2322/2403 1500 BCFG

Observations et prévisions météorologiques de plus de 4000 aéroports (messages METAR et TAF).

Les stations disponibles sont représentées par des disques jaunes et rouges sur la carte.

Passer la souris dessus pour voir le nom de la station.

Cliquer dessus pour voir les observations et prévisions météorologiques.

Pour changer de carte: cliquez sur les boutons verts avec une croix noire pour zoomer, sur le bouton vert avec un tiret pour effectuer un zoom arrière, ou sur les flèches vertes pour les cartes adjacentes.


METAR-TAF: